WetterOnline ( https://www.wetteronline.de )

Wetter aktuell Spelle

Aktuelles Wetter: Lingen-Baccum (40m)

6-stündlich | Neueste Meldungen
Ortszeit Temperatur Wetter
Do, 02.02. 7:00 4.5° C leichter Regen
Do, 02.02. 1:00 4.9° C bedeckt
Mi, 01.02. 19:00 6.6° C leicht bewölkt
Mi, 01.02. 13:00 5.5° C Sprühregen
Mi, 01.02. 7:00 6.4° C bedeckt
Mi, 01.02. 1:00 5.0° C bedeckt
Di, 31.01. 19:00 6.8° C fast wolkenlos
Di, 31.01. 13:00 5.6° C bedeckt
Ortszeit Temperatur Wetter
Do, 02.02. 11:30 5.4° C leichter Regen
Do, 02.02. 11:20 5.4° C leichter Regen
Do, 02.02. 11:10 5.3° C leichter Regen
Do, 02.02. 11:00 5.1° C leichter Regen
Do, 02.02. 10:50 5.1° C leichter Regen
Do, 02.02. 10:40 5.0° C leichter Regen
Do, 02.02. 10:30 4.8° C leichter Regen
Do, 02.02. 10:00 4.6° C leichter Regen
Do, 02.02. 9:30 4.4° C leichter Regen
Do, 02.02. 9:00 4.2° C leichter Regen
Do, 02.02. 8:30 4.2° C leichter Regen
Ortszeit Relative Feuchte Sichtweite
Do, 02.02. 7:00 87% 15 km
Do, 02.02. 1:00 85% 24 km
Mi, 01.02. 19:00 78% 28 km
Mi, 01.02. 13:00 88% 18 km
Mi, 01.02. 7:00 74% 30 km
Mi, 01.02. 1:00 75% 29 km
Di, 31.01. 19:00 76% 30 km
Di, 31.01. 13:00 93% 2.8 km
Ortszeit Relative Feuchte Sichtweite
Do, 02.02. 11:30 94% 22 km
Do, 02.02. 11:20 94% -
Do, 02.02. 11:10 94% -
Do, 02.02. 11:00 94% 30 km
Do, 02.02. 10:50 94% -
Do, 02.02. 10:40 95% -
Do, 02.02. 10:30 95% 17 km
Do, 02.02. 10:00 95% 24 km
Do, 02.02. 9:30 95% 20 km
Do, 02.02. 9:00 96% 15 km
Do, 02.02. 8:30 94% 17 km
Ortszeit Niederschlagsmenge Niederschlagsart
Do, 02.02. 7:00 0.9 l/m2 in 12 Std. Regen
Do, 02.02. 1:00 0.0 l/m2 in 6 Std. -
Mi, 01.02. 19:00 3 l/m2 in 12 Std. Regen
Mi, 01.02. 13:00 0.8 l/m2 in 6 Std. Regen
Mi, 01.02. 7:00 0.6 l/m2 in 12 Std. Regen
Mi, 01.02. 1:00 0.0 l/m2 in 6 Std. -
Di, 31.01. 19:00 1 l/m2 in 12 Std. Regen
Di, 31.01. 13:00 0.1 l/m2 in 6 Std. Regen
Ortszeit Niederschlagsmenge Niederschlagsart
Do, 02.02. 11:30 0.2 l/m2 in 30 Min -
Do, 02.02. 11:20 keine Meldung -
Do, 02.02. 11:10 keine Meldung -
Do, 02.02. 11:00 0.6 l/m2 in 1 Std. Regen
Do, 02.02. 10:50 keine Meldung -
Do, 02.02. 10:40 keine Meldung -
Do, 02.02. 10:30 0.3 l/m2 in 30 Min -
Do, 02.02. 10:00 0.6 l/m2 in 1 Std. Regen
Do, 02.02. 9:30 0.4 l/m2 in 30 Min -
Do, 02.02. 9:00 0.5 l/m2 in 1 Std. Regen
Do, 02.02. 8:30 0.1 l/m2 in 30 Min -
Ortszeit Stärke Spitze Richtung
km/h Bft. km/h Grad Sektor
Do, 02.02. 7:00 11 2 36 300° NW
Do, 02.02. 1:00 17 3 44 260° W
Mi, 01.02. 19:00 26 4 59 270° W
Mi, 01.02. 13:00 28 4 56 250° W
Mi, 01.02. 7:00 29 5 47 260° W
Mi, 01.02. 1:00 18 3 43 240° SW
Di, 31.01. 19:00 24 4 48 250° W
Di, 31.01. 13:00 25 4 47 230° SW
Ortszeit Stärke Spitze Richtung
km/h Bft. km/h Grad Sektor
Do, 02.02. 11:30 7 2 11 250° W
Do, 02.02. 11:20 7 2 - 250° W
Do, 02.02. 11:10 7 2 - 250° W
Do, 02.02. 11:00 7 2 11 280° W
Do, 02.02. 10:50 7 2 - 280° W
Do, 02.02. 10:40 6 1 - 280° W
Do, 02.02. 10:30 7 2 11 280° W
Do, 02.02. 10:00 7 2 14 260° W
Do, 02.02. 9:30 7 2 11 260° W
Do, 02.02. 9:00 7 2 14 240° SW
Do, 02.02. 8:30 7 2 14 250° W
Ortszeit Untergrenze Bedeckung Gattung
total tief tief mittel hoch
Do, 02.02. 7:00 630 m 7/8 7/8 - - -
Do, 02.02. 1:00 5400 m 8/8 8/8 - - -
Mi, 01.02. 19:00 690 m 2/8 2/8 - - -
Mi, 01.02. 13:00 540 m 7/8 7/8 - - -
Mi, 01.02. 7:00 750 m 8/8 8/8 - - -
Mi, 01.02. 1:00 4200 m 8/8 8/8 - - -
Di, 31.01. 19:00 750 m 1/8 1/8 - - -
Di, 31.01. 13:00 270 m 8/8 8/8 - - -
Ortszeit Bedeckungsgrad in Achtel und Wolkenuntergrenze
Do, 02.02. 11:30 5(750m) 8(1170m) 8(1500m)
Do, 02.02. 11:20 5(750m) 8(1170m) 8(1500m)
Do, 02.02. 11:10 8
Do, 02.02. 11:00 5(810m) 7(1080m) 8(1290m)
Do, 02.02. 10:50 5(810m) 7(1080m) 8(1290m)
Do, 02.02. 10:40 8
Do, 02.02. 10:30 5(660m) 7(1020m) 8(1410m)
Do, 02.02. 10:00 3(690m) 8(1110m) 8(1380m)
Do, 02.02. 9:30 6(690m) 8(1050m)
Do, 02.02. 9:00 5(690m) 6(870m) 8(1110m)
Do, 02.02. 8:30 7(660m) 7(870m) 8(1050m)
Ortszeit Luftdruck NN (hPa) Tendenz (hPa in 3 Std.)
Do, 02.02. 7:00 1020 + 0,9
Do, 02.02. 1:00 1018 + 1,5
Mi, 01.02. 19:00 1016 + 1,4
Mi, 01.02. 13:00 1014 - 1,4
Mi, 01.02. 7:00 1014 - 1,1
Mi, 01.02. 1:00 1017 - 0,7
Di, 31.01. 19:00 1017 + 1,1
Di, 31.01. 13:00 1017 - 1,2
Ortszeit Luftdruck NN (hPa) Tendenz (hPa in 3 Std.)
Do, 02.02. 11:30 1022 + 2,0
Do, 02.02. 11:20 1022 keine Meldung
Do, 02.02. 11:10 1022 keine Meldung
Do, 02.02. 11:00 1022 + 1,8
Do, 02.02. 10:50 1022 keine Meldung
Do, 02.02. 10:40 1022 keine Meldung
Do, 02.02. 10:30 1021 + 1,7
Do, 02.02. 10:00 1021 + 1,3
Do, 02.02. 9:30 1021 + 1,2
Do, 02.02. 9:00 1020 + 1,2
Do, 02.02. 8:30 1020 + 1,0
Ortszeit Schneehöhe (cm)
Do, 02.02. 7:00 0
Do, 02.02. 1:00 0
Mi, 01.02. 19:00 0
Mi, 01.02. 13:00 0
Mi, 01.02. 7:00 0
Mi, 01.02. 1:00 0
Di, 31.01. 19:00 0
Di, 31.01. 13:00 0
Ortszeit Schneehöhe (cm)
Do, 02.02. 11:30 0
Do, 02.02. 11:20 0
Do, 02.02. 11:10 0
Do, 02.02. 11:00 0
Do, 02.02. 10:50 0
Do, 02.02. 10:40 0
Do, 02.02. 10:30 0
Do, 02.02. 10:00 0
Do, 02.02. 9:30 0
Do, 02.02. 9:00 0
Do, 02.02. 8:30 0
Link zu dieser Seite / Seite empfehlen

Das Wetter in ...